Time;durP1;ratioP1;P1;durP2;ratioP2;P2;SDS_P1;SDS_P2;PMS_P1;PMS_P2;Temp;Humidity;BMP_temperature;BMP_pressure;BME280_temperature;BME280_humidity;BME280_pressure;Samples;Min_cycle;Max_cycle;Signal;HPM_P1;HPM_P2
2024/03/22 00:00:31;;;;;;;2.50;2.30;;;;;;;19.66;52.56;98181.88;4983310;28;20212;-28
2024/03/22 00:02:57;;;;;;;2.80;2.60;;;;;;;19.66;52.51;98176.78;5010652;28;20280;-29
2024/03/22 00:05:23;;;;;;;2.80;2.60;;;;;;;19.67;52.71;98180.22;5005349;28;20201;-26
2024/03/22 00:07:48;;;;;;;2.90;2.70;;;;;;;19.66;52.53;98181.88;4994265;28;20210;-27
2024/03/22 00:10:14;;;;;;;2.80;2.60;;;;;;;19.66;52.58;98184.41;4997808;28;20237;-27
2024/03/22 00:12:40;;;;;;;2.70;2.50;;;;;;;19.66;52.60;98181.88;4998999;28;20281;-29
2024/03/22 00:15:06;;;;;;;2.60;2.40;;;;;;;19.66;52.53;98181.88;5004168;28;20232;-29
2024/03/22 00:17:33;;;;;;;2.30;2.20;;;;;;;19.66;52.60;98179.31;4992616;28;20198;-27
2024/03/22 00:19:59;;;;;;;2.20;2.00;;;;;;;19.64;52.53;98178.41;5000774;28;20206;-28
2024/03/22 00:22:25;;;;;;;2.73;2.53;;;;;;;19.63;52.29;98170.69;5000961;28;20286;-26
2024/03/22 00:24:50;;;;;;;2.70;2.50;;;;;;;19.63;52.63;98171.53;4999131;28;22074;-29
2024/03/22 00:27:16;;;;;;;2.63;2.43;;;;;;;19.62;52.61;98172.34;5004400;28;20206;-32
2024/03/22 00:29:42;;;;;;;2.83;2.63;;;;;;;19.64;52.70;98164.75;5003478;28;20304;-26
2024/03/22 00:32:07;;;;;;;2.50;2.30;;;;;;;19.64;52.61;98163.09;4998159;28;20212;-26
2024/03/22 00:34:34;;;;;;;2.57;2.37;;;;;;;19.66;52.66;98158.91;4997098;28;20226;-27
2024/03/22 00:37:00;;;;;;;2.77;2.57;;;;;;;19.64;52.59;98152.91;5004191;28;20206;-26
2024/03/22 00:39:25;;;;;;;2.57;2.37;;;;;;;19.65;52.47;98146.09;5002149;28;20272;-27
2024/03/22 00:41:51;;;;;;;2.50;2.30;;;;;;;19.65;52.68;98143.56;4998881;28;20754;-27
2024/03/22 00:44:16;;;;;;;2.57;2.37;;;;;;;19.65;52.46;98139.34;5000712;28;20217;-30
2024/03/22 00:46:42;;;;;;;2.60;2.40;;;;;;;19.66;52.49;98145.31;4999781;28;20199;-26
2024/03/22 00:49:08;;;;;;;2.80;2.60;;;;;;;19.65;52.57;98141.00;4997308;28;20206;-27
2024/03/22 00:51:33;;;;;;;2.83;2.63;;;;;;;19.65;52.63;98134.25;4998133;28;20199;-26
2024/03/22 00:53:59;;;;;;;2.80;2.60;;;;;;;19.64;52.85;98131.63;4998266;28;20601;-29
2024/03/22 00:56:24;;;;;;;2.60;2.40;;;;;;;19.65;52.67;98134.25;5001499;28;20293;-27
2024/03/22 00:58:50;;;;;;;2.73;2.53;;;;;;;19.65;52.67;98126.59;4999412;28;20209;-28
2024/03/22 01:01:16;;;;;;;2.43;2.23;;;;;;;19.64;52.77;98118.88;4997835;28;20644;-28
2024/03/22 01:03:41;;;;;;;2.70;2.50;;;;;;;19.62;52.67;98113.69;5000039;28;20366;-26
2024/03/22 01:06:07;;;;;;;3.00;2.80;;;;;;;19.63;52.61;98114.56;4997563;28;20582;-26
2024/03/22 01:08:32;;;;;;;2.53;2.33;;;;;;;19.62;52.53;98116.25;5001275;28;20221;-27
2024/03/22 01:10:58;;;;;;;2.83;2.63;;;;;;;19.63;52.63;98117.13;4994694;28;20199;-31
2024/03/22 01:13:24;;;;;;;2.57;2.37;;;;;;;19.63;52.75;98107.78;5002104;28;20225;-34
2024/03/22 01:15:49;;;;;;;2.70;2.50;;;;;;;19.64;52.75;98111.22;4999887;28;20206;-27
2024/03/22 01:18:15;;;;;;;2.60;2.40;;;;;;;19.64;52.69;98107.00;4997464;28;20567;-28
2024/03/22 01:20:42;;;;;;;2.80;2.60;;;;;;;19.63;52.50;98097.59;5000110;28;20202;-27
2024/03/22 01:23:07;;;;;;;3.03;2.73;;;;;;;19.65;52.55;98105.31;4982746;28;20238;-31
2024/03/22 01:25:33;;;;;;;2.60;2.40;;;;;;;19.64;52.60;98098.47;4996679;28;20206;-27
2024/03/22 01:27:59;;;;;;;2.83;2.63;;;;;;;19.64;52.78;98091.69;4996581;28;20202;-27
2024/03/22 01:30:28;;;;;;;2.50;2.30;;;;;;;19.64;52.68;98098.47;4998637;28;20210;-29
2024/03/22 01:32:54;;;;;;;2.60;2.40;;;;;;;19.63;52.69;98087.38;5001564;28;20206;-28
2024/03/22 01:35:20;;;;;;;2.83;2.63;;;;;;;19.64;52.60;98089.16;5001862;28;20234;-27
2024/03/22 01:37:46;;;;;;;2.70;2.50;;;;;;;19.65;52.73;98090.00;5001743;28;20214;-29
2024/03/22 01:40:12;;;;;;;2.83;2.63;;;;;;;19.65;52.55;98083.25;4996889;28;20637;-26
2024/03/22 01:42:38;;;;;;;2.80;2.60;;;;;;;19.63;52.61;98079.72;4965065;28;20665;-25
2024/03/22 01:45:04;;;;;;;2.53;2.33;;;;;;;19.62;52.68;98082.22;5003952;28;20325;-30
2024/03/22 01:47:30;;;;;;;2.50;2.30;;;;;;;19.62;52.78;98080.56;4994308;28;20213;-27
2024/03/22 01:49:55;;;;;;;2.90;2.60;;;;;;;19.55;52.66;98064.91;4996918;28;20293;-33
2024/03/22 01:52:21;;;;;;;2.73;2.53;;;;;;;19.63;52.59;98076.34;4984443;28;20201;-26
2024/03/22 01:54:46;;;;;;;2.60;2.40;;;;;;;19.63;52.60;98071.25;4996943;28;20265;-26
2024/03/22 01:57:12;;;;;;;2.80;2.60;;;;;;;19.64;52.60;98060.22;4988689;28;20289;-27
2024/03/22 01:59:38;;;;;;;2.70;2.50;;;;;;;19.63;52.53;98069.53;5003291;28;20209;-28
2024/03/22 02:02:04;;;;;;;2.67;2.47;;;;;;;19.63;52.70;98071.25;4960760;28;20234;-28
2024/03/22 02:04:29;;;;;;;2.70;2.50;;;;;;;19.63;52.72;98071.25;4997038;28;20764;-27
2024/03/22 02:06:55;;;;;;;2.53;2.33;;;;;;;19.63;52.65;98063.59;4995497;28;20285;-27
2024/03/22 02:09:23;;;;;;;3.00;2.80;;;;;;;19.62;52.66;98064.38;5000398;28;20668;-28
2024/03/22 02:11:49;;;;;;;2.90;2.70;;;;;;;19.62;52.61;98059.25;4998403;28;20620;-26
2024/03/22 02:14:15;;;;;;;2.60;2.40;;;;;;;19.62;52.66;98056.72;4968336;28;20256;-27
2024/03/22 02:16:40;;;;;;;2.90;2.70;;;;;;;19.62;52.60;98061.81;4997533;28;20588;-28
2024/03/22 02:19:07;;;;;;;3.20;2.90;;;;;;;19.61;52.69;98058.41;4990965;28;20207;-26
2024/03/22 02:21:32;;;;;;;2.80;2.60;;;;;;;19.61;52.54;98058.41;4997320;28;20233;-35
2024/03/22 02:23:58;;;;;;;2.60;2.40;;;;;;;19.61;52.73;98052.44;4998293;28;20312;-26
2024/03/22 02:26:23;;;;;;;3.10;2.90;;;;;;;19.60;52.73;98050.69;4997410;28;20210;-26
2024/03/22 02:28:49;;;;;;;2.83;2.63;;;;;;;19.59;52.61;98048.94;5002550;28;20296;-26
2024/03/22 02:31:15;;;;;;;2.47;2.30;;;;;;;19.59;52.74;98052.38;4999655;28;20206;-27
2024/03/22 02:33:40;;;;;;;2.80;2.60;;;;;;;19.60;52.54;98045.59;4998702;28;20226;-29
2024/03/22 02:36:06;;;;;;;2.90;2.70;;;;;;;19.60;52.63;98043.06;4999453;28;20232;-35
2024/03/22 02:38:32;;;;;;;3.00;2.80;;;;;;;19.60;52.57;98038.81;5005896;28;20252;-28
2024/03/22 02:40:57;;;;;;;2.60;2.40;;;;;;;19.61;52.67;98039.69;5004070;28;20280;-28
2024/03/22 02:43:23;;;;;;;2.90;2.70;;;;;;;19.60;52.72;98041.34;5002764;28;20685;-33
2024/03/22 02:45:49;;;;;;;2.80;2.60;;;;;;;19.60;52.63;98038.81;5004841;28;20206;-26
2024/03/22 02:48:14;;;;;;;3.10;2.90;;;;;;;19.61;52.73;98039.69;4999267;28;20213;-28
2024/03/22 02:50:40;;;;;;;2.83;2.63;;;;;;;19.61;52.58;98039.69;5001130;28;20237;-29
2024/03/22 02:53:06;;;;;;;2.70;2.50;;;;;;;19.61;52.58;98039.69;4998481;28;20233;-30
2024/03/22 02:55:39;;;;;;;2.80;2.60;;;;;;;19.61;52.72;98043.13;5004044;28;20222;-26
2024/03/22 02:58:05;;;;;;;3.33;3.03;;;;;;;19.61;52.69;98043.13;5003097;28;20202;-29
2024/03/22 03:00:31;;;;;;;2.83;2.63;;;;;;;19.61;52.72;98042.22;5003223;28;20202;-28
2024/03/22 03:02:57;;;;;;;3.17;2.87;;;;;;;19.61;52.56;98047.34;4998862;28;20203;-27
2024/03/22 03:05:23;;;;;;;3.10;2.90;;;;;;;19.60;52.57;98043.91;5002140;28;20608;-27
2024/03/22 03:07:50;;;;;;;3.00;2.80;;;;;;;19.60;52.71;98033.69;4998734;28;20202;-27
2024/03/22 03:10:16;;;;;;;2.80;2.60;;;;;;;19.59;52.63;98031.09;5004730;28;20209;-26
2024/03/22 03:12:41;;;;;;;2.80;2.60;;;;;;;19.59;52.60;98023.44;4998040;28;20198;-27
2024/03/22 03:15:07;;;;;;;2.80;2.60;;;;;;;19.60;52.56;98020.97;4993031;28;20589;-27
2024/03/22 03:17:33;;;;;;;2.50;2.30;;;;;;;19.59;52.65;98016.66;5000125;28;20300;-28
2024/03/22 03:19:59;;;;;;;3.00;2.80;;;;;;;19.61;52.54;98020.16;5001948;28;20202;-28
2024/03/22 03:22:24;;;;;;;3.00;2.80;;;;;;;19.60;52.55;98020.97;4999470;28;20689;-27
2024/03/22 03:24:50;;;;;;;3.20;2.90;;;;;;;19.60;52.72;98008.22;5004234;28;20645;-27
2024/03/22 03:27:15;;;;;;;2.80;2.60;;;;;;;19.60;52.54;98007.34;5000159;28;20225;-28
2024/03/22 03:29:41;;;;;;;3.10;2.90;;;;;;;19.62;52.64;98006.59;5004482;28;20289;-27
2024/03/22 03:32:07;;;;;;;3.20;2.90;;;;;;;19.61;52.50;98006.53;5001544;28;20210;-27
2024/03/22 03:34:32;;;;;;;3.00;2.80;;;;;;;19.61;52.51;98009.97;5002165;28;20229;-26
2024/03/22 03:37:00;;;;;;;3.13;2.83;;;;;;;19.62;52.67;98008.28;5002029;28;20221;-26
2024/03/22 03:39:26;;;;;;;2.90;2.70;;;;;;;19.56;52.66;98001.25;5009196;28;20206;-27
2024/03/22 03:41:52;;;;;;;2.80;2.60;;;;;;;19.60;52.63;98005.66;4990737;28;20691;-30
2024/03/22 03:44:17;;;;;;;3.00;2.70;;;;;;;19.61;52.71;98007.44;5002364;28;20268;-26
2024/03/22 03:46:43;;;;;;;3.10;2.90;;;;;;;19.61;52.69;97998.88;4988686;28;20198;-26
2024/03/22 03:49:08;;;;;;;2.80;2.60;;;;;;;19.61;52.54;98004.88;5002715;28;20340;-28
2024/03/22 03:51:34;;;;;;;2.80;2.60;;;;;;;19.59;52.68;98006.47;4996829;28;20206;-28
2024/03/22 03:53:59;;;;;;;2.80;2.60;;;;;;;19.59;52.65;98005.59;4995759;28;20293;-26
2024/03/22 03:56:25;;;;;;;2.87;2.67;;;;;;;19.59;52.56;97995.38;5001727;28;20737;-26
2024/03/22 03:58:51;;;;;;;2.90;2.70;;;;;;;19.59;52.50;98001.38;5006437;28;20214;-27
2024/03/22 04:01:18;;;;;;;3.23;2.93;;;;;;;19.60;52.48;97999.72;4996387;28;20210;-28
2024/03/22 04:03:43;;;;;;;2.67;2.47;;;;;;;19.60;52.55;97998.00;4999320;28;20214;-27
2024/03/22 04:06:09;;;;;;;2.83;2.63;;;;;;;19.61;52.46;97993.78;4998161;28;20195;-27
2024/03/22 04:08:34;;;;;;;3.10;2.83;;;;;;;19.60;52.48;97984.41;4998894;28;20217;-32
2024/03/22 04:11:00;;;;;;;2.87;2.67;;;;;;;19.61;52.51;97976.81;5001051;28;20512;-26
2024/03/22 04:13:26;;;;;;;3.10;2.80;;;;;;;19.61;52.49;97978.50;4999539;28;20704;-27
2024/03/22 04:15:52;;;;;;;2.63;2.43;;;;;;;19.61;52.55;97969.19;4991914;28;20901;-30
2024/03/22 04:18:18;;;;;;;2.77;2.57;;;;;;;19.61;52.45;97964.06;4998196;28;20209;-27
2024/03/22 04:20:53;;;;;;;3.00;2.80;;;;;;;19.60;52.65;97969.97;4996604;28;20260;-27
2024/03/22 04:23:18;;;;;;;2.90;2.70;;;;;;;19.61;52.76;97961.53;5006576;28;20225;-27
2024/03/22 04:25:52;;;;;;;2.83;2.63;;;;;;;19.60;52.56;97961.47;5009227;28;20206;-27
2024/03/22 04:28:18;;;;;;;2.83;2.60;;;;;;;19.61;52.53;97968.28;5003605;28;20202;-30
2024/03/22 04:30:44;;;;;;;2.93;2.73;;;;;;;19.60;52.52;97972.50;4998763;28;20214;-28
2024/03/22 04:33:09;;;;;;;3.00;2.80;;;;;;;19.60;52.70;97971.66;5004385;28;20239;-26
2024/03/22 04:35:35;;;;;;;2.63;2.43;;;;;;;19.59;52.64;97980.09;5002312;28;20301;-27
2024/03/22 04:38:00;;;;;;;2.83;2.63;;;;;;;19.59;52.56;97978.44;5001409;28;20206;-27
2024/03/22 04:40:26;;;;;;;3.60;2.90;;;;;;;19.59;52.54;97978.44;5004146;28;20201;-27
2024/03/22 04:42:52;;;;;;;2.60;2.40;;;;;;;19.59;52.69;97978.44;5008050;28;20573;-27
2024/03/22 04:45:17;;;;;;;3.03;2.73;;;;;;;19.60;52.64;97980.16;4996191;28;20198;-27
2024/03/22 04:47:44;;;;;;;2.83;2.63;;;;;;;19.61;52.52;97986.16;4999583;28;20208;-26
2024/03/22 04:50:09;;;;;;;2.70;2.50;;;;;;;19.60;52.62;97985.25;4989680;28;20276;-28
2024/03/22 04:52:35;;;;;;;2.90;2.63;;;;;;;19.61;52.64;97983.59;4992989;28;20285;-30
2024/03/22 04:55:02;;;;;;;2.97;2.77;;;;;;;19.62;52.64;97985.31;4978380;28;20230;-30
2024/03/22 04:57:27;;;;;;;2.70;2.50;;;;;;;19.61;52.59;97986.16;5008515;28;20216;-27
2024/03/22 04:59:53;;;;;;;2.93;2.73;;;;;;;19.62;52.51;97983.66;4997345;28;20589;-26
2024/03/22 05:02:19;;;;;;;3.03;2.83;;;;;;;19.62;52.46;97982.78;4993695;28;20627;-27
2024/03/22 05:04:44;;;;;;;3.00;2.80;;;;;;;19.63;52.46;97997.28;4996739;28;20349;-33
2024/03/22 05:07:10;;;;;;;2.70;2.50;;;;;;;19.64;52.43;97988.81;4998787;28;20213;-27
2024/03/22 05:09:35;;;;;;;3.03;2.83;;;;;;;19.66;52.54;97984.69;5005689;28;20284;-27
2024/03/22 05:12:01;;;;;;;3.10;2.90;;;;;;;19.65;52.37;97981.25;5000530;28;20214;-27
2024/03/22 05:14:26;;;;;;;3.03;2.80;;;;;;;19.65;52.51;97980.38;4996670;28;20214;-27
2024/03/22 05:16:52;;;;;;;2.63;2.43;;;;;;;19.63;52.66;97977.75;5003064;28;20292;-27
2024/03/22 05:19:18;;;;;;;2.63;2.43;;;;;;;19.63;52.53;97987.09;4998141;28;20202;-28
2024/03/22 05:21:43;;;;;;;3.03;2.80;;;;;;;19.62;52.51;97983.66;4988153;28;20324;-30
2024/03/22 05:24:09;;;;;;;2.67;2.47;;;;;;;19.63;52.41;97985.41;4992158;28;20321;-26
2024/03/22 05:26:36;;;;;;;2.70;2.50;;;;;;;19.63;52.59;97990.50;4988012;28;20276;-29
2024/03/22 05:29:02;;;;;;;2.70;2.50;;;;;;;19.64;52.60;97983.72;4998887;28;20225;-31
2024/03/22 05:31:28;;;;;;;3.10;2.90;;;;;;;19.64;52.51;97983.72;4999334;28;20232;-27
2024/03/22 05:33:54;;;;;;;2.77;2.57;;;;;;;19.63;52.45;97975.19;4996695;28;20241;-28
2024/03/22 05:36:20;;;;;;;3.27;2.97;;;;;;;19.65;51.65;97975.25;5006083;28;20198;-26
2024/03/22 05:38:45;;;;;;;3.03;2.80;;;;;;;19.64;51.85;97971.88;4996916;28;20205;-26
2024/03/22 05:41:11;;;;;;;2.93;2.73;;;;;;;19.64;52.27;97976.06;4986322;28;20281;-27
2024/03/22 05:43:36;;;;;;;3.43;3.10;;;;;;;19.62;52.34;97970.91;5001359;28;20297;-28
2024/03/22 05:46:02;;;;;;;3.63;3.33;;;;;;;19.62;52.20;97965.81;5006228;28;20202;-27
2024/03/22 05:48:28;;;;;;;5.33;3.23;;;;;;;19.62;52.34;97959.81;4991831;28;20210;-26
2024/03/22 05:50:54;;;;;;;4.87;3.67;;;;;;;19.63;52.17;97961.59;5004016;28;20634;-27
2024/03/22 05:53:19;;;;;;;3.50;3.20;;;;;;;19.62;52.24;97962.38;4996862;28;20309;-27
2024/03/22 05:55:45;;;;;;;3.40;3.10;;;;;;;19.61;52.27;97953.00;4997621;28;20748;-28
2024/03/22 05:58:10;;;;;;;4.97;4.47;;;;;;;19.61;50.81;97953.00;4996980;28;20209;-26
2024/03/22 06:00:36;;;;;;;16.53;5.87;;;;;;;19.59;49.09;97957.16;4980813;28;20277;-27
2024/03/22 06:03:02;;;;;;;9.13;7.60;;;;;;;19.57;48.62;97951.97;4999362;28;20230;-27
2024/03/22 06:05:28;;;;;;;10.20;9.03;;;;;;;19.57;46.39;97949.44;4996064;28;20206;-27
2024/03/22 06:07:53;;;;;;;14.40;10.40;;;;;;;19.55;45.83;97945.97;4998022;28;20606;-30
2024/03/22 06:10:19;;;;;;;13.97;10.80;;;;;;;19.54;45.54;97949.31;4998217;28;20282;-29
2024/03/22 06:12:46;;;;;;;12.97;10.93;;;;;;;19.53;45.07;97947.56;5001647;28;20205;-30
2024/03/22 06:15:12;;;;;;;18.23;11.57;;;;;;;19.53;44.81;97954.34;5006932;28;20226;-27
2024/03/22 06:17:38;;;;;;;15.77;11.73;;;;;;;19.53;45.46;97951.78;5005509;28;20276;-31
2024/03/22 06:20:05;;;;;;;14.30;11.00;;;;;;;19.53;46.36;97956.88;5000463;28;20285;-26
2024/03/22 06:22:31;;;;;;;13.67;10.30;;;;;;;19.53;47.22;97964.53;5002899;28;20229;-26
2024/03/22 06:24:56;;;;;;;11.57;9.77;;;;;;;19.53;47.90;97959.44;5000295;28;20696;-28
2024/03/22 06:27:22;;;;;;;13.20;9.83;;;;;;;19.47;48.28;97941.31;4999878;28;20747;-27
2024/03/22 06:29:48;;;;;;;12.37;9.33;;;;;;;19.54;48.88;97951.00;4983629;28;20213;-30
2024/03/22 06:32:13;;;;;;;10.93;9.40;;;;;;;19.55;49.09;97948.50;5002654;28;20216;-28
2024/03/22 06:34:39;;;;;;;9.90;8.67;;;;;;;19.55;49.34;97945.97;5002048;28;20225;-28
2024/03/22 06:37:05;;;;;;;9.47;8.10;;;;;;;19.55;49.62;97940.88;5000348;28;20206;-28
2024/03/22 06:39:31;;;;;;;10.40;7.57;;;;;;;19.58;49.57;97942.66;5006860;28;20210;-27
2024/03/22 06:41:57;;;;;;;10.43;8.03;;;;;;;19.60;49.76;97938.53;5001508;28;20916;-28
2024/03/22 06:44:22;;;;;;;8.67;7.30;;;;;;;19.61;48.07;97932.59;5004591;28;20222;-28
2024/03/22 06:46:48;;;;;;;8.00;6.97;;;;;;;19.62;49.07;97929.22;5005563;28;20245;-27
2024/03/22 06:49:14;;;;;;;10.10;8.93;;;;;;;19.62;47.85;97925.03;5000293;28;20202;-29
2024/03/22 06:51:39;;;;;;;9.53;8.40;;;;;;;19.62;48.37;97925.03;4999757;28;20202;-32
2024/03/22 06:54:05;;;;;;;9.37;8.27;;;;;;;19.63;48.77;97921.66;4999348;28;20799;-26
2024/03/22 06:56:30;;;;;;;12.43;8.37;;;;;;;19.65;49.17;97926.81;5002742;28;20206;-26
2024/03/22 06:58:56;;;;;;;13.27;11.50;;;;;;;19.64;46.69;97928.50;5003124;28;20281;-27
2024/03/22 07:01:21;;;;;;;16.03;13.83;;;;;;;19.60;45.88;97929.16;4999891;28;20202;-28
2024/03/22 07:03:47;;;;;;;14.87;13.33;;;;;;;19.59;45.60;97922.34;4999728;28;20226;-26
2024/03/22 07:06:14;;;;;;;17.30;14.07;;;;;;;19.57;46.21;97933.28;5005507;28;20257;-28
2024/03/22 07:08:40;;;;;;;13.47;12.07;;;;;;;19.55;46.94;97920.47;5006020;28;20206;-29
2024/03/22 07:11:06;;;;;;;16.73;11.80;;;;;;;19.52;47.33;97917.78;4996462;28;20311;-29
2024/03/22 07:13:32;;;;;;;13.70;12.30;;;;;;;19.53;47.77;97926.28;4983625;28;20230;-27
2024/03/22 07:15:57;;;;;;;14.27;12.33;;;;;;;19.52;48.02;97922.88;4989950;28;20550;-29
2024/03/22 07:18:23;;;;;;;14.77;11.57;;;;;;;19.52;48.27;97917.78;4994522;28;20280;-25
2024/03/22 07:20:49;;;;;;;13.17;11.60;;;;;;;19.53;48.46;97918.63;4993911;28;20725;-26
2024/03/22 07:23:14;;;;;;;12.57;11.27;;;;;;;19.53;48.45;97911.88;5001029;28;20234;-27
2024/03/22 07:25:42;;;;;;;13.63;11.13;;;;;;;19.54;49.02;97918.72;4999681;28;20223;-26
2024/03/22 07:28:08;;;;;;;15.47;11.00;;;;;;;19.54;49.32;97905.13;4998378;28;20214;-29
2024/03/22 07:30:35;;;;;;;11.83;10.47;;;;;;;19.54;49.37;97905.97;4982742;28;20217;-27
2024/03/22 07:33:01;;;;;;;12.03;10.77;;;;;;;19.56;49.49;97913.66;4978579;28;20233;-29
2024/03/22 07:35:26;;;;;;;14.30;10.20;;;;;;;19.58;49.51;97906.97;4996570;28;20606;-27
2024/03/22 07:37:52;;;;;;;11.53;10.37;;;;;;;19.60;49.65;97908.78;4996471;28;20297;-34
2024/03/22 07:40:17;;;;;;;10.73;9.63;;;;;;;19.58;49.57;97909.53;4997417;28;20206;-27
2024/03/22 07:42:43;;;;;;;10.73;8.87;;;;;;;19.57;49.79;97905.25;4995696;28;20222;-30
2024/03/22 07:45:10;;;;;;;10.23;8.70;;;;;;;19.57;49.74;97905.25;4989910;28;20199;-27
2024/03/22 07:47:35;;;;;;;11.33;8.77;;;;;;;19.56;50.11;97901.81;4994601;28;20209;-28
2024/03/22 07:50:01;;;;;;;12.63;9.47;;;;;;;19.58;49.86;97904.44;4995075;28;20210;-26
2024/03/22 07:52:27;;;;;;;12.37;9.53;;;;;;;19.59;49.50;97908.72;4978811;28;20202;-26
2024/03/22 07:54:52;;;;;;;9.47;8.47;;;;;;;19.58;49.92;97904.44;4995393;28;20245;-27
2024/03/22 07:57:18;;;;;;;11.90;8.87;;;;;;;19.59;49.75;97906.16;4995050;28;20572;-31
2024/03/22 07:59:44;;;;;;;9.97;8.37;;;;;;;19.32;50.15;97862.53;4994535;28;20217;-26
2024/03/22 08:02:10;;;;;;;9.33;8.43;;;;;;;19.58;50.18;97904.44;4996126;28;20309;-26
2024/03/22 08:04:35;;;;;;;9.30;8.40;;;;;;;19.59;50.23;97907.03;4994039;28;20256;-32
2024/03/22 08:07:01;;;;;;;9.43;8.53;;;;;;;19.58;50.38;97912.97;4995070;28;20211;-32
2024/03/22 08:09:26;;;;;;;8.87;7.97;;;;;;;19.59;50.36;97912.13;4994908;28;20665;-26
2024/03/22 08:11:52;;;;;;;9.07;7.60;;;;;;;19.59;50.44;97904.50;4995645;28;20224;-34
2024/03/22 08:14:18;;;;;;;8.77;7.87;;;;;;;19.59;50.33;97899.41;4994280;28;20228;-32
2024/03/22 08:16:43;;;;;;;8.87;7.70;;;;;;;19.60;50.59;97907.94;4996714;28;20719;-26
2024/03/22 08:19:09;;;;;;;8.87;7.97;;;;;;;19.58;50.47;97910.41;4995918;28;20278;-27
2024/03/22 08:21:36;;;;;;;8.40;7.60;;;;;;;19.58;50.48;97906.97;4995958;28;20289;-27
2024/03/22 08:24:02;;;;;;;8.77;7.90;;;;;;;19.58;50.53;97900.22;4999259;28;20222;-26
2024/03/22 08:26:27;;;;;;;7.77;6.97;;;;;;;19.60;50.53;97902.81;4982923;28;20340;-26
2024/03/22 08:28:53;;;;;;;9.27;7.33;;;;;;;19.59;50.52;97901.94;5000567;28;20217;-33
2024/03/22 08:31:25;;;;;;;9.10;8.00;;;;;;;19.60;50.60;97896.03;4998098;28;20328;-31
2024/03/22 08:33:51;;;;;;;7.63;6.90;;;;;;;19.61;50.69;97896.91;4998667;28;20230;-29
2024/03/22 08:36:17;;;;;;;7.90;7.10;;;;;;;19.61;50.72;97896.91;5000596;28;20195;-26
2024/03/22 08:38:42;;;;;;;7.73;7.03;;;;;;;19.61;50.53;97905.44;5000347;28;20210;-27
2024/03/22 08:41:08;;;;;;;7.30;6.57;;;;;;;19.61;50.62;97896.91;4998207;28;20277;-28
2024/03/22 08:43:33;;;;;;;7.03;6.33;;;;;;;19.61;50.79;97895.25;4997465;28;20226;-31
2024/03/22 08:45:59;;;;;;;7.37;6.67;;;;;;;19.60;50.73;97892.63;4994491;28;20266;-29
2024/03/22 08:48:25;;;;;;;7.57;6.50;;;;;;;19.61;51.18;97896.91;4993260;28;20206;-26
2024/03/22 08:50:50;;;;;;;7.50;6.70;;;;;;;19.60;50.78;97890.06;4998891;28;20242;-29
2024/03/22 08:53:17;;;;;;;6.97;6.27;;;;;;;19.58;50.75;97882.38;4996742;28;20296;-30
2024/03/22 08:55:47;;;;;;;7.80;6.97;;;;;;;19.61;50.81;97891.81;4999486;28;20226;-27
2024/03/22 08:58:17;;;;;;;7.37;6.50;;;;;;;19.59;50.84;97884.09;4997488;28;20222;-30
2024/03/22 09:00:43;;;;;;;6.73;6.00;;;;;;;19.61;50.94;97884.16;4996783;28;20206;-34
2024/03/22 09:03:09;;;;;;;6.57;5.80;;;;;;;19.61;51.01;97881.59;4997166;28;20226;-28
2024/03/22 09:05:35;;;;;;;6.17;5.67;;;;;;;19.63;50.77;97880.00;4996891;28;20198;-38
2024/03/22 09:08:01;;;;;;;7.33;6.17;;;;;;;19.63;50.89;97875.75;4997875;28;20216;-37
2024/03/22 09:10:28;;;;;;;6.30;5.70;;;;;;;19.64;50.93;97871.53;4996644;28;20210;-26
2024/03/22 09:12:54;;;;;;;7.37;6.07;;;;;;;19.63;50.98;97873.22;4996589;28;20206;-27
2024/03/22 09:15:19;;;;;;;7.40;5.97;;;;;;;19.63;50.98;97875.75;4996040;28;20222;-27
2024/03/22 09:17:45;;;;;;;6.63;5.93;;;;;;;19.63;51.01;97872.34;4995823;28;20205;-35
2024/03/22 09:20:11;;;;;;;6.67;5.67;;;;;;;19.62;51.00;97868.94;4994924;28;20370;-29
2024/03/22 09:22:36;;;;;;;5.70;5.10;;;;;;;19.62;50.87;97858.72;4995019;28;20287;-26
2024/03/22 09:25:02;;;;;;;6.37;5.70;;;;;;;19.63;50.94;97862.16;4994713;28;20237;-27
2024/03/22 09:27:27;;;;;;;7.00;6.00;;;;;;;19.63;51.00;97862.16;4997396;28;20205;-28
2024/03/22 09:29:53;;;;;;;5.83;5.27;;;;;;;19.63;51.13;97865.56;4997380;28;20224;-28
2024/03/22 09:32:19;;;;;;;6.63;5.87;;;;;;;19.63;50.93;97867.25;5003530;28;20262;-26
2024/03/22 09:34:44;;;;;;;5.50;5.00;;;;;;;19.61;50.86;97856.13;5003147;28;20288;-27
2024/03/22 09:37:10;;;;;;;5.30;4.80;;;;;;;19.61;51.04;97862.09;4997502;28;21079;-30
2024/03/22 09:39:36;;;;;;;8.10;5.23;;;;;;;19.62;51.17;97860.41;5000866;28;20206;-31
2024/03/22 09:42:02;;;;;;;6.00;5.30;;;;;;;19.60;51.17;97854.38;4999266;28;20796;-26
2024/03/22 09:44:27;;;;;;;5.37;4.87;;;;;;;19.63;51.12;97851.97;4969075;28;20210;-27
2024/03/22 09:46:53;;;;;;;5.67;5.10;;;;;;;19.63;51.27;97854.50;4991350;28;20210;-26
2024/03/22 09:49:18;;;;;;;5.30;4.80;;;;;;;19.63;51.09;97857.91;4993946;28;20201;-28
2024/03/22 09:51:44;;;;;;;5.57;5.07;;;;;;;19.64;51.05;97848.59;4978041;28;20301;-31
2024/03/22 09:54:10;;;;;;;6.43;5.13;;;;;;;19.64;51.08;97848.59;4993712;28;20226;-28
2024/03/22 09:56:37;;;;;;;5.10;4.60;;;;;;;19.63;51.03;97839.22;4992902;28;20214;-27
2024/03/22 09:59:03;;;;;;;5.33;4.83;;;;;;;19.62;51.09;97840.88;4959916;28;20213;-27
2024/03/22 10:01:29;;;;;;;5.27;4.77;;;;;;;19.62;51.13;97843.44;4960428;28;20193;-31
2024/03/22 10:03:55;;;;;;;5.00;4.43;;;;;;;19.63;51.28;97844.31;4975493;28;20217;-32
2024/03/22 10:06:20;;;;;;;5.10;4.60;;;;;;;19.62;51.22;97842.53;4994719;28;20213;-26
2024/03/22 10:08:46;;;;;;;5.43;4.63;;;;;;;19.63;51.34;97834.97;4994547;28;20594;-28
2024/03/22 10:11:12;;;;;;;5.17;4.67;;;;;;;19.61;51.33;97836.59;4995522;28;20661;-27
2024/03/22 10:13:37;;;;;;;4.60;4.20;;;;;;;19.63;51.34;97836.66;4998764;28;20225;-28
2024/03/22 10:16:03;;;;;;;5.53;4.47;;;;;;;19.62;51.32;97829.81;4998258;28;20221;-35
2024/03/22 10:18:29;;;;;;;5.10;4.63;;;;;;;19.63;51.25;97829.88;4999080;28;20206;-26
2024/03/22 10:21:02;;;;;;;5.27;4.53;;;;;;;19.58;51.43;97821.19;4993470;28;20222;-34
2024/03/22 10:23:28;;;;;;;5.17;4.53;;;;;;;19.65;51.24;97832.47;4997311;28;20218;-29
2024/03/22 10:25:56;;;;;;;4.40;4.00;;;;;;;19.66;51.32;97826.59;4996545;28;20207;-28
2024/03/22 10:28:21;;;;;;;5.00;4.30;;;;;;;19.65;51.31;97830.81;4997128;28;20634;-27
2024/03/22 10:30:47;;;;;;;4.57;4.17;;;;;;;19.66;51.37;97822.34;4997976;28;20214;-28
2024/03/22 10:33:13;;;;;;;6.30;4.30;;;;;;;19.66;51.29;97821.50;4976864;28;20222;-33
2024/03/22 10:35:39;;;;;;;4.60;4.20;;;;;;;19.63;51.35;97816.25;4964289;28;20232;-27
2024/03/22 10:38:04;;;;;;;4.70;4.30;;;;;;;19.67;51.35;97823.22;4979093;28;20282;-28
2024/03/22 10:40:30;;;;;;;4.90;4.40;;;;;;;19.64;51.63;97810.34;4982440;28;20585;-28
2024/03/22 10:42:57;;;;;;;4.43;4.07;;;;;;;19.66;51.43;97811.28;4962246;28;20207;-26
2024/03/22 10:45:25;;;;;;;4.60;4.17;;;;;;;19.57;51.30;97795.63;4970627;28;20201;-30
2024/03/22 10:47:50;;;;;;;4.20;3.77;;;;;;;19.67;51.36;97806.25;4996121;28;20240;-31
2024/03/22 10:50:16;;;;;;;4.67;4.00;;;;;;;19.59;51.35;97791.44;4993195;28;20617;-27
2024/03/22 10:52:46;;;;;;;4.40;3.87;;;;;;;19.67;51.60;97800.28;4981101;28;20210;-28
2024/03/22 10:55:16;;;;;;;3.90;3.60;;;;;;;19.67;51.24;97788.41;4979031;28;20224;-27
2024/03/22 10:57:41;;;;;;;4.30;3.90;;;;;;;19.67;51.35;97783.31;4997038;28;20205;-27
2024/03/22 11:00:10;;;;;;;4.13;3.77;;;;;;;19.67;51.49;97778.22;4971475;28;20219;-28
2024/03/22 11:02:37;;;;;;;5.43;4.17;;;;;;;19.68;51.33;97768.84;4998942;28;20553;-27
2024/03/22 11:05:07;;;;;;;5.50;3.87;;;;;;;19.67;51.42;97756.94;5000920;28;20237;-32
2024/03/22 11:07:32;;;;;;;4.00;3.60;;;;;;;19.67;51.35;97750.16;4997606;28;20292;-27
2024/03/22 11:10:00;;;;;;;4.23;3.60;;;;;;;19.69;51.37;97745.13;4999722;28;20206;-26
2024/03/22 11:12:26;;;;;;;3.60;3.30;;;;;;;19.69;51.71;97740.03;4999913;28;20268;-26
2024/03/22 11:14:53;;;;;;;3.90;3.50;;;;;;;19.70;51.41;97732.44;5004512;28;20265;-29
2024/03/22 11:17:19;;;;;;;5.27;3.90;;;;;;;19.71;51.96;97731.63;4998841;28;20206;-27
2024/03/22 11:19:44;;;;;;;4.57;3.93;;;;;;;19.72;51.89;97723.16;5001150;28;20218;-26
2024/03/22 11:22:11;;;;;;;4.37;3.97;;;;;;;19.72;51.93;97729.94;5002161;28;20206;-27
2024/03/22 11:24:40;;;;;;;4.80;3.67;;;;;;;19.71;51.74;97721.41;4986965;28;20245;-27